Time;durP1;ratioP1;P1;durP2;ratioP2;P2;SDS_P1;SDS_P2;PMS_P1;PMS_P2;Temp;Humidity;BMP_temperature;BMP_pressure;BME280_temperature;BME280_humidity;BME280_pressure;Samples;Min_cycle;Max_cycle;Signal;HPM_P1;HPM_P2
2022/06/28 00:00:23;;;;;;;11.13;7.97;;;23.70;99.90;;;;;;5070899;28;20113;-75
2022/06/28 00:02:49;;;;;;;11.38;7.75;;;23.80;99.90;;;;;;5070424;28;20028;-74
2022/06/28 00:05:15;;;;;;;10.35;7.65;;;23.80;99.90;;;;;;5070462;28;20108;-75
2022/06/28 00:07:41;;;;;;;10.57;7.68;;;23.80;99.90;;;;;;5070280;28;20021;-70
2022/06/28 00:10:09;;;;;;;14.45;8.60;;;23.80;99.90;;;;;;5070791;28;20029;-73
2022/06/28 00:12:35;;;;;;;9.82;7.40;;;23.90;99.90;;;;;;5070181;28;20470;-74
2022/06/28 00:17:47;;;;;;;13.90;8.20;;;23.80;99.90;;;;;;5070383;28;20036;-73
2022/06/28 00:20:12;;;;;;;13.27;8.65;;;23.80;99.90;;;;;;5070162;28;20024;-73
2022/06/28 00:22:38;;;;;;;11.70;7.60;;;23.70;99.90;;;;;;5070120;28;20067;-75
2022/06/28 00:25:05;;;;;;;14.52;7.32;;;23.60;99.90;;;;;;5070336;28;20043;-74
2022/06/28 00:27:31;;;;;;;11.52;7.47;;;23.60;99.90;;;;;;5070095;28;20029;-72
2022/06/28 00:29:56;;;;;;;11.55;7.00;;;23.70;99.90;;;;;;5070462;28;20043;-70
2022/06/28 00:32:22;;;;;;;15.65;7.60;;;23.70;99.90;;;;;;5053989;28;20048;-62
2022/06/28 00:34:49;;;;;;;14.57;9.70;;;23.70;99.90;;;;;;5057717;28;20359;-62
2022/06/28 00:37:15;;;;;;;12.13;8.70;;;23.50;99.90;;;;;;5081632;28;20119;-70
2022/06/28 00:39:41;;;;;;;13.40;8.88;;;23.40;99.90;;;;;;5055000;28;20366;-73
2022/06/28 00:42:08;;;;;;;10.38;7.07;;;23.40;99.90;;;;;;5071625;28;20043;-74
2022/06/28 00:44:35;;;;;;;15.02;7.97;;;;;;;;;;5056553;28;20040;-74
2022/06/28 00:47:02;;;;;;;11.88;7.82;;;23.30;99.90;;;;;;5075389;28;20021;-74
2022/06/28 00:49:27;;;;;;;10.90;7.40;;;23.30;99.90;;;;;;5057006;28;20041;-72
2022/06/28 00:51:56;;;;;;;13.00;7.82;;;23.20;99.90;;;;;;5037528;28;20055;-71
2022/06/28 00:54:23;;;;;;;12.82;8.30;;;23.10;99.90;;;;;;5055370;28;20029;-74
2022/06/28 00:56:49;;;;;;;12.15;7.78;;;23.20;99.90;;;;;;5055463;28;20047;-73
2022/06/28 00:59:15;;;;;;;11.95;7.65;;;23.10;99.90;;;;;;5055025;28;20463;-75
2022/06/28 01:01:41;;;;;;;13.77;6.60;;;23.00;99.90;;;;;;5055149;28;20036;-73
2022/06/28 01:04:09;;;;;;;10.70;6.72;;;23.00;99.90;;;;;;5037229;28;20501;-74
2022/06/28 01:06:38;;;;;;;11.15;6.80;;;23.00;99.90;;;;;;5055247;28;20057;-75
2022/06/28 01:09:04;;;;;;;12.55;7.68;;;23.00;99.90;;;;;;5037356;28;20033;-74
2022/06/28 01:11:32;;;;;;;9.52;7.38;;;23.00;99.90;;;;;;5025452;28;20021;-74
2022/06/28 01:14:05;;;;;;;14.60;8.52;;;23.00;99.90;;;;;;5035650;28;20025;-73
2022/06/28 01:16:51;;;;;;;14.00;7.60;;;22.90;99.90;;;;;;5034541;28;20025;-69
2022/06/28 01:19:21;;;;;;;13.32;7.88;;;22.90;99.90;;;;;;5054496;28;20029;-73
2022/06/28 01:21:55;;;;;;;10.70;7.55;;;22.80;99.90;;;;;;5036755;28;20025;-71
2022/06/28 01:24:25;;;;;;;10.23;6.85;;;22.80;99.90;;;;;;5020643;28;20041;-75
2022/06/28 01:27:02;;;;;;;14.63;7.30;;;22.80;99.90;;;;;;5036762;28;20183;-74
2022/06/28 01:29:28;;;;;;;10.75;6.78;;;22.80;99.90;;;;;;5047365;28;20107;-74
2022/06/28 01:32:14;;;;;;;13.50;7.57;;;22.70;99.90;;;;;;5055755;28;20057;-73
2022/06/28 01:34:41;;;;;;;10.23;7.28;;;22.60;99.90;;;;;;5054517;28;20391;-74
2022/06/28 01:37:08;;;;;;;12.18;7.15;;;22.50;99.90;;;;;;5034792;28;20044;-75
2022/06/28 01:39:34;;;;;;;13.68;7.97;;;22.50;99.90;;;;;;5036343;28;20037;-75
2022/06/28 01:42:00;;;;;;;13.20;7.40;;;22.40;99.90;;;;;;5040517;28;20029;-75
2022/06/28 01:44:30;;;;;;;15.60;8.30;;;22.40;99.90;;;;;;5033056;28;20033;-74
2022/06/28 01:47:04;;;;;;;11.02;7.72;;;22.40;99.90;;;;;;5033742;28;20017;-75
2022/06/28 01:50:08;;;;;;;13.15;8.20;;;22.30;99.90;;;;;;5058906;28;20060;-73
2022/06/28 01:52:43;;;;;;;12.82;7.88;;;22.30;99.90;;;;;;5042176;28;20471;-74
2022/06/28 01:55:29;;;;;;;14.88;9.15;;;22.20;99.90;;;;;;5073319;28;20066;-74
2022/06/28 01:57:56;;;;;;;14.85;10.15;;;22.00;99.90;;;;;;5055724;28;20028;-73
2022/06/28 02:00:23;;;;;;;15.25;10.68;;;21.90;99.90;;;;;;5054033;28;20386;-73
2022/06/28 02:02:52;;;;;;;16.23;11.40;;;21.80;99.90;;;;;;5052777;28;20495;-74
2022/06/28 02:05:36;;;;;;;16.50;10.65;;;21.70;99.90;;;;;;5068590;28;20119;-74
2022/06/28 02:08:03;;;;;;;13.65;9.15;;;21.60;99.90;;;;;;5057808;28;20021;-74
2022/06/28 02:11:02;;;;;;;14.27;10.02;;;21.50;99.90;;;;;;5066821;28;20525;-73
2022/06/28 02:13:42;;;;;;;14.90;10.27;;;21.40;99.90;;;;;;5045922;28;20040;-74
2022/06/28 02:16:09;;;;;;;14.43;9.85;;;21.40;99.90;;;;;;5071611;28;20345;-73
2022/06/28 02:18:35;;;;;;;15.77;9.57;;;21.50;99.90;;;;;;5069848;28;20029;-74
2022/06/28 02:21:05;;;;;;;14.25;9.93;;;21.40;99.90;;;;;;5051358;28;20088;-74
2022/06/28 02:23:31;;;;;;;14.70;10.25;;;21.30;99.90;;;;;;5052281;28;20122;-72
2022/06/28 02:25:57;;;;;;;13.98;10.05;;;21.20;99.90;;;;;;5070309;28;20056;-75
2022/06/28 02:28:23;;;;;;;14.30;9.98;;;21.10;99.90;;;;;;5064602;28;20391;-74
2022/06/28 02:30:51;;;;;;;12.38;9.50;;;21.10;99.90;;;;;;5047126;28;20021;-72
2022/06/28 02:33:17;;;;;;;13.60;9.82;;;21.10;99.90;;;;;;5069031;28;20207;-75
2022/06/28 02:41:12;;;;;;;15.60;9.23;;;21.00;99.90;;;;;;5069696;28;20032;-74
2022/06/28 02:43:38;;;;;;;15.07;10.85;;;21.00;99.90;;;;;;5065789;28;20055;-75
2022/06/28 02:46:07;;;;;;;16.92;9.77;;;20.90;99.90;;;;;;5066221;28;20033;-74
2022/06/28 02:48:32;;;;;;;14.35;9.95;;;20.90;99.90;;;;;;5037091;28;20044;-72
2022/06/28 02:50:58;;;;;;;16.48;9.43;;;20.90;99.90;;;;;;5051502;28;20175;-75
2022/06/28 02:53:24;;;;;;;13.23;10.18;;;20.80;99.90;;;;;;5063245;28;20031;-75
2022/06/28 02:55:50;;;;;;;12.55;9.45;;;20.80;99.90;;;;;;5069992;28;20021;-74
2022/06/28 02:58:17;;;;;;;12.23;9.35;;;20.90;99.90;;;;;;5063851;28;20020;-74
2022/06/28 03:00:42;;;;;;;14.18;9.50;;;20.80;99.90;;;;;;5072543;28;20035;-74
2022/06/28 03:03:08;;;;;;;14.43;9.18;;;20.70;99.90;;;;;;5051101;28;20071;-74
2022/06/28 03:05:35;;;;;;;15.20;9.93;;;20.50;99.90;;;;;;5063098;28;20439;-75
2022/06/28 03:08:01;;;;;;;16.13;9.77;;;20.40;99.90;;;;;;5054617;28;20056;-75
2022/06/28 03:10:29;;;;;;;13.60;8.52;;;20.40;99.90;;;;;;5051223;28;20029;-74
2022/06/28 03:12:55;;;;;;;12.65;9.00;;;20.50;99.90;;;;;;5066192;28;20037;-75
2022/06/28 03:15:24;;;;;;;11.18;8.60;;;20.40;99.90;;;;;;5051208;28;20035;-75
2022/06/28 03:17:50;;;;;;;13.15;8.25;;;20.40;99.90;;;;;;5053562;28;20048;-75
2022/06/28 03:20:16;;;;;;;13.20;9.23;;;20.40;99.90;;;;;;5041232;28;20059;-74
2022/06/28 03:22:42;;;;;;;15.38;9.05;;;20.50;99.90;;;;;;5054304;28;20036;-74
2022/06/28 03:25:08;;;;;;;13.45;7.88;;;20.50;99.90;;;;;;5051410;28;20041;-74
2022/06/28 03:27:34;;;;;;;12.15;7.68;;;20.40;99.90;;;;;;5066596;28;20115;-75
2022/06/28 03:30:01;;;;;;;11.13;7.63;;;20.40;99.90;;;;;;5048833;28;20063;-74
2022/06/28 03:32:29;;;;;;;12.63;8.40;;;20.60;99.90;;;;;;5041814;28;20029;-75
2022/06/28 03:34:55;;;;;;;12.20;7.85;;;20.50;99.90;;;;;;5064688;28;20475;-74
2022/06/28 03:37:24;;;;;;;14.00;7.72;;;20.70;99.90;;;;;;5053337;28;20028;-75
2022/06/28 03:39:54;;;;;;;14.65;8.48;;;20.80;99.90;;;;;;5053900;28;20094;-74
2022/06/28 03:42:22;;;;;;;12.60;7.78;;;21.10;99.90;;;;;;5053689;28;20029;-75
2022/06/28 03:44:50;;;;;;;10.52;7.88;;;21.20;99.90;;;;;;5053338;28;20120;-75
2022/06/28 03:47:16;;;;;;;12.30;8.15;;;21.60;99.90;;;;;;5050901;28;20159;-64
2022/06/28 03:49:56;;;;;;;11.43;7.50;;;21.90;99.90;;;;;;5045158;28;20128;-63
2022/06/28 03:52:43;;;;;;;9.88;7.53;;;22.10;99.90;;;;;;5060250;28;20036;-68
2022/06/28 03:55:43;;;;;;;14.85;7.43;;;22.70;99.90;;;;;;5058964;28;20048;-63
2022/06/28 03:58:09;;;;;;;11.85;7.13;;;23.20;99.90;;;;;;5070691;28;20028;-63
2022/06/28 04:00:35;;;;;;;11.40;6.88;;;23.50;99.90;;;;;;5069689;28;20024;-62
2022/06/28 04:03:02;;;;;;;11.82;6.90;;;23.90;99.90;;;;;;5053128;28;20040;-71
2022/06/28 04:05:37;;;;;;;9.32;6.50;;;24.00;99.90;;;;;;5052903;28;20024;-68
2022/06/28 04:08:03;;;;;;;13.25;7.07;;;24.50;99.90;;;;;;5064077;28;20028;-72
2022/06/28 04:10:37;;;;;;;9.40;6.63;;;24.00;99.90;;;;;;5075672;28;20020;-63
2022/06/28 04:13:13;;;;;;;10.45;6.97;;;24.30;99.90;;;;;;5069740;28;20028;-63
2022/06/28 04:15:39;;;;;;;8.88;6.97;;;24.50;99.90;;;;;;5067785;28;20037;-74
2022/06/28 04:18:09;;;;;;;9.30;6.53;;;24.80;99.90;;;;;;5049249;28;20035;-75
2022/06/28 04:20:36;;;;;;;8.73;6.28;;;25.20;99.90;;;;;;5067219;28;20494;-64
2022/06/28 04:23:04;;;;;;;12.82;6.55;;;25.30;99.90;;;;;;5054136;28;20033;-75
2022/06/28 04:25:32;;;;;;;7.00;5.60;;;25.90;99.90;;;;;;5049135;28;20041;-69
2022/06/28 04:28:12;;;;;;;8.00;5.82;;;26.00;99.90;;;;;;5043899;28;20017;-67
2022/06/28 04:30:46;;;;;;;15.18;6.20;;;25.30;99.90;;;;;;5060812;28;20483;-71
2022/06/28 04:33:13;;;;;;;9.40;6.50;;;25.80;99.90;;;;;;5052309;28;20055;-73
2022/06/28 04:35:41;;;;;;;8.40;5.68;;;26.30;99.90;;;;;;5057580;28;20475;-74
2022/06/28 04:38:07;;;;;;;9.45;6.10;;;26.30;99.90;;;;;;5047513;28;20052;-75
2022/06/28 04:40:43;;;;;;;11.50;5.97;;;;;;;;;;5043195;28;20032;-76
2022/06/28 04:43:28;;;;;;;10.63;5.85;;;;;;;;;;5059104;28;20040;-75
2022/06/28 04:45:54;;;;;;;13.95;6.70;;;27.30;99.90;;;;;;5047724;28;20017;-74
2022/06/28 04:48:21;;;;;;;9.98;6.28;;;27.40;99.90;;;;;;5050964;28;20024;-75
2022/06/28 04:50:47;;;;;;;10.05;6.15;;;27.60;99.90;;;;;;5052461;28;20051;-75
2022/06/28 04:53:16;;;;;;;9.55;5.70;;;26.70;99.90;;;;;;5053032;28;20029;-74
2022/06/28 04:55:47;;;;;;;9.30;6.13;;;27.10;99.90;;;;;;5048674;28;20021;-74
2022/06/28 04:58:13;;;;;;;8.50;6.47;;;27.40;99.90;;;;;;5037819;28;20060;-75
2022/06/28 05:00:39;;;;;;;9.10;5.85;;;27.20;99.90;;;;;;5051523;28;20052;-74
2022/06/28 05:03:11;;;;;;;9.68;6.25;;;26.60;99.90;;;;;;5052877;28;20154;-76
2022/06/28 05:06:11;;;;;;;8.55;5.65;;;26.50;99.90;;;;;;4996251;28;20049;-75
2022/06/28 05:08:37;;;;;;;11.15;6.18;;;26.10;99.90;;;;;;4991048;28;20026;-75
2022/06/28 05:11:06;;;;;;;11.32;6.38;;;25.90;99.90;;;;;;5008602;28;20122;-72
2022/06/28 05:13:56;;;;;;;11.07;6.07;;;25.30;99.90;;;;;;4933897;29;20041;-75
2022/06/28 05:16:23;;;;;;;11.90;6.28;;;25.20;99.90;;;;;;4932837;29;20045;-73
2022/06/28 05:18:51;;;;;;;11.23;6.63;;;24.80;99.90;;;;;;4919463;29;20051;-76
2022/06/28 05:21:24;;;;;;;10.80;6.97;;;25.10;99.90;;;;;;4931799;29;20083;-73
2022/06/28 05:23:50;;;;;;;11.38;6.57;;;25.10;99.90;;;;;;4945319;29;20044;-76
2022/06/28 05:26:37;;;;;;;9.48;6.28;;;25.00;99.90;;;;;;4915955;29;20039;-76
2022/06/28 05:29:21;;;;;;;23.02;6.63;;;25.60;99.90;;;;;;4915990;29;20424;-74
2022/06/28 05:31:46;;;;;;;13.27;7.05;;;25.40;99.90;;;;;;4943735;29;20047;-75
2022/06/28 05:34:13;;;;;;;10.45;6.75;;;25.60;99.90;;;;;;4944932;28;20043;-73
2022/06/28 05:36:39;;;;;;;8.75;6.38;;;25.30;99.90;;;;;;4938098;28;20031;-77
2022/06/28 05:39:06;;;;;;;10.98;6.18;;;25.60;99.90;;;;;;4937850;29;20035;-76
2022/06/28 05:41:32;;;;;;;10.88;6.80;;;25.90;99.90;;;;;;4958636;28;20046;-76
2022/06/28 05:44:00;;;;;;;16.10;6.50;;;26.30;99.90;;;;;;4993939;28;20046;-76
2022/06/28 05:46:26;;;;;;;10.70;7.05;;;26.10;99.90;;;;;;5012319;28;20026;-76
2022/06/28 05:48:52;;;;;;;12.55;7.57;;;26.10;99.90;;;;;;4995471;28;20034;-76
2022/06/28 05:51:18;;;;;;;10.25;6.32;;;26.10;99.90;;;;;;5053937;28;20037;-73
2022/06/28 05:53:44;;;;;;;10.88;6.35;;;26.40;99.90;;;;;;5056196;28;20398;-74
2022/06/28 05:56:10;;;;;;;9.95;6.32;;;26.80;99.90;;;;;;5056317;28;20024;-73
2022/06/28 05:58:36;;;;;;;8.73;6.30;;;26.90;99.90;;;;;;5056332;28;20032;-74
2022/06/28 06:01:03;;;;;;;13.00;6.78;;;27.00;99.90;;;;;;5055957;28;20068;-76
2022/06/28 06:03:32;;;;;;;9.98;6.85;;;26.10;99.90;;;;;;5056170;28;20032;-75
2022/06/28 06:05:58;;;;;;;11.55;6.70;;;27.30;99.90;;;;;;5073735;28;20081;-76
2022/06/28 06:08:24;;;;;;;16.05;6.25;;;27.80;99.90;;;;;;5055751;28;20040;-75
2022/06/28 06:10:51;;;;;;;10.73;6.68;;;27.50;99.80;;;;;;5055867;28;20021;-76
2022/06/28 06:13:17;;;;;;;9.82;6.82;;;28.00;99.90;;;;;;5074195;28;20732;-76
2022/06/28 06:15:43;;;;;;;13.20;6.97;;;28.00;99.90;;;;;;5056055;28;20356;-76
2022/06/28 06:18:09;;;;;;;11.10;6.78;;;28.10;99.90;;;;;;5073678;28;20020;-73
2022/06/28 06:20:35;;;;;;;12.18;7.25;;;27.90;99.80;;;;;;5055668;28;20048;-75
2022/06/28 06:23:00;;;;;;;12.15;6.93;;;28.10;99.40;;;;;;5055397;28;20032;-76
2022/06/28 06:25:46;;;;;;;15.73;6.85;;;28.00;99.90;;;;;;5061472;28;20041;-75
2022/06/28 06:28:12;;;;;;;8.38;6.18;;;28.30;99.40;;;;;;5053254;28;20029;-75
2022/06/28 06:30:39;;;;;;;9.98;6.38;;;28.70;97.20;;;;;;5062809;28;20020;-75
2022/06/28 06:33:25;;;;;;;12.40;7.25;;;29.00;96.60;;;;;;4970437;28;20125;-74
2022/06/28 06:36:08;;;;;;;14.60;7.30;;;29.40;97.00;;;;;;4975628;28;20121;-74
2022/06/28 06:38:34;;;;;;;9.63;6.68;;;29.50;96.00;;;;;;4975468;28;20045;-73
2022/06/28 06:41:00;;;;;;;12.27;7.30;;;29.20;94.20;;;;;;4990784;28;20022;-75
2022/06/28 06:43:27;;;;;;;11.02;6.55;;;29.30;94.70;;;;;;4968094;28;20122;-74
2022/06/28 06:46:05;;;;;;;12.90;7.28;;;29.10;96.30;;;;;;4970302;28;20429;-76
2022/06/28 06:48:31;;;;;;;9.57;6.93;;;29.30;94.60;;;;;;4991672;28;20040;-75
2022/06/28 06:50:57;;;;;;;12.43;7.15;;;29.20;93.60;;;;;;4990906;28;20042;-75
2022/06/28 06:53:28;;;;;;;11.88;7.90;;;29.10;93.90;;;;;;4991154;28;20035;-76
2022/06/28 06:55:55;;;;;;;10.73;6.97;;;29.80;96.40;;;;;;4991203;28;20038;-77
2022/06/28 06:58:21;;;;;;;12.82;6.75;;;29.70;91.40;;;;;;4997285;28;20037;-76
2022/06/28 07:00:47;;;;;;;11.55;7.32;;;29.80;91.10;;;;;;4990587;28;20039;-74
2022/06/28 07:03:13;;;;;;;10.10;6.93;;;30.20;90.80;;;;;;4988778;28;20530;-77
2022/06/28 07:05:41;;;;;;;17.83;7.03;;;29.60;88.90;;;;;;4971571;28;20035;-75
2022/06/28 07:08:07;;;;;;;10.18;7.13;;;29.70;90.00;;;;;;4984406;28;20030;-64
2022/06/28 07:10:49;;;;;;;11.00;6.93;;;29.60;90.00;;;;;;5007292;28;20044;-75
2022/06/28 07:13:14;;;;;;;11.07;6.18;;;29.60;90.30;;;;;;5032507;28;20430;-75
2022/06/28 07:15:40;;;;;;;9.40;6.28;;;29.70;89.50;;;;;;5022383;28;20029;-76
2022/06/28 07:18:07;;;;;;;9.07;5.93;;;30.10;88.20;;;;;;5034259;28;20063;-73
2022/06/28 07:20:32;;;;;;;9.40;5.43;;;30.40;86.40;;;;;;5051779;28;20021;-76
2022/06/28 07:22:58;;;;;;;9.43;5.90;;;30.60;81.80;;;;;;5034054;28;20386;-76
2022/06/28 07:25:26;;;;;;;10.00;6.03;;;30.80;81.70;;;;;;5034292;28;20475;-76
2022/06/28 07:27:52;;;;;;;10.57;5.90;;;31.20;81.10;;;;;;5051816;28;20096;-75
2022/06/28 07:30:17;;;;;;;8.75;6.25;;;30.80;80.00;;;;;;5051744;28;20113;-74
2022/06/28 07:32:44;;;;;;;9.85;6.05;;;30.80;78.20;;;;;;5034840;28;20029;-76
2022/06/28 07:35:10;;;;;;;8.73;5.75;;;30.40;77.10;;;;;;5033895;28;20437;-73
2022/06/28 07:37:37;;;;;;;9.27;6.38;;;30.80;79.10;;;;;;5034277;28;20037;-76
2022/06/28 07:40:06;;;;;;;9.82;6.43;;;31.20;79.90;;;;;;5034041;28;20051;-76
2022/06/28 07:42:50;;;;;;;10.18;6.70;;;31.60;81.70;;;;;;5051935;28;20102;-75
2022/06/28 07:45:40;;;;;;;9.05;6.15;;;31.40;78.60;;;;;;5034038;28;20387;-76
2022/06/28 07:48:11;;;;;;;9.55;6.05;;;31.40;90.60;;;;;;5034065;28;20025;-76
2022/06/28 07:53:23;;;;;;;8.45;6.18;;;31.40;78.70;;;;;;5053106;28;20052;-76
2022/06/28 07:56:24;;;;;;;10.82;7.10;;;31.50;78.30;;;;;;5009807;28;20087;-75
2022/06/28 07:58:50;;;;;;;8.15;6.57;;;31.90;78.20;;;;;;5009764;28;20451;-74
2022/06/28 08:01:21;;;;;;;15.02;7.60;;;32.10;79.30;;;;;;5009350;28;20029;-75
2022/06/28 08:03:49;;;;;;;12.32;6.78;;;32.20;79.20;;;;;;5009431;28;20073;-76
2022/06/28 08:06:15;;;;;;;10.73;6.47;;;31.80;76.90;;;;;;4993479;28;20060;-76
2022/06/28 08:09:07;;;;;;;9.18;6.30;;;31.40;76.90;;;;;;5004731;28;20548;-70
2022/06/28 08:11:33;;;;;;;9.60;5.47;;;31.50;77.30;;;;;;5009579;28;20123;-76
2022/06/28 08:14:00;;;;;;;12.35;5.80;;;32.00;76.50;;;;;;5009821;28;20036;-75
2022/06/28 08:16:26;;;;;;;10.18;6.00;;;32.30;78.20;;;;;;5009599;28;20467;-74
2022/06/28 08:18:52;;;;;;;5.93;4.90;;;32.70;80.00;;;;;;5006694;28;20057;-72
2022/06/28 08:21:19;;;;;;;9.77;5.90;;;33.00;78.40;;;;;;5007550;28;20113;-75
2022/06/28 08:23:45;;;;;;;10.10;5.85;;;33.20;79.20;;;;;;5009467;28;20084;-73
2022/06/28 08:26:11;;;;;;;8.48;5.32;;;33.40;77.50;;;;;;5009545;28;20026;-76
2022/06/28 08:28:37;;;;;;;9.27;6.03;;;33.50;74.50;;;;;;4992745;28;20405;-76
2022/06/28 08:31:03;;;;;;;7.75;6.00;;;33.40;74.10;;;;;;5040193;28;20035;-74
2022/06/28 08:33:30;;;;;;;8.68;5.55;;;33.40;72.80;;;;;;5053129;28;20044;-73
2022/06/28 08:35:55;;;;;;;9.38;5.75;;;33.50;73.00;;;;;;5053241;28;20115;-75
2022/06/28 08:38:21;;;;;;;7.40;5.63;;;33.50;70.90;;;;;;5071686;28;20230;-73
2022/06/28 08:40:47;;;;;;;9.32;6.00;;;33.60;73.80;;;;;;5071504;28;20024;-75
2022/06/28 08:43:13;;;;;;;9.20;6.07;;;33.60;73.90;;;;;;5071485;28;20040;-74
2022/06/28 08:45:39;;;;;;;10.35;6.15;;;33.60;74.10;;;;;;5071242;28;20029;-73
2022/06/28 08:48:22;;;;;;;9.18;6.10;;;33.80;75.00;;;;;;5069707;28;20009;-70
2022/06/28 08:50:54;;;;;;;17.02;6.45;;;33.70;75.00;;;;;;5070561;28;20052;-75
2022/06/28 08:53:22;;;;;;;10.63;6.05;;;34.00;74.90;;;;;;5071774;28;20021;-71
2022/06/28 08:55:50;;;;;;;9.82;5.50;;;34.20;75.60;;;;;;5071055;28;20032;-76
2022/06/28 08:58:17;;;;;;;11.98;5.47;;;33.90;70.30;;;;;;5071283;28;20032;-70
2022/06/28 09:00:43;;;;;;;8.73;5.60;;;33.60;72.40;;;;;;5070446;28;20486;-74
2022/06/28 09:03:09;;;;;;;9.30;5.53;;;33.90;73.80;;;;;;5071351;28;20063;-74
2022/06/28 09:05:35;;;;;;;7.57;5.93;;;34.20;72.00;;;;;;5074118;28;20485;-74
2022/06/28 09:08:00;;;;;;;8.45;5.10;;;34.30;74.00;;;;;;5075156;28;20039;-73
2022/06/28 09:10:27;;;;;;;7.97;4.90;;;34.30;72.80;;;;;;5074999;28;20021;-74
2022/06/28 09:13:05;;;;;;;7.38;5.32;;;;;;;;;;5074763;28;20032;-76
2022/06/28 09:15:50;;;;;;;10.82;5.30;;;34.40;70.30;;;;;;5075074;28;20020;-74
2022/06/28 09:18:18;;;;;;;6.78;4.72;;;34.40;71.20;;;;;;5074833;28;20459;-75
2022/06/28 09:20:44;;;;;;;9.65;5.05;;;;;;;;;;5074835;28;20016;-72
2022/06/28 09:23:30;;;;;;;5.93;4.63;;;34.20;70.60;;;;;;5074595;28;20036;-74
2022/06/28 09:26:05;;;;;;;10.23;5.57;;;34.30;70.60;;;;;;5074771;28;20296;-75
2022/06/28 09:28:31;;;;;;;8.77;5.22;;;34.00;69.50;;;;;;5074635;28;20479;-75
2022/06/28 09:31:14;;;;;;;10.73;5.88;;;34.40;69.40;;;;;;5074955;28;20016;-73
2022/06/28 09:33:44;;;;;;;10.82;5.10;;;34.50;67.70;;;;;;5074583;28;20029;-74
2022/06/28 09:36:13;;;;;;;7.30;5.20;;;34.60;71.90;;;;;;5074560;28;20023;-75
2022/06/28 09:38:39;;;;;;;6.93;5.03;;;34.70;71.40;;;;;;5074266;28;20052;-74
2022/06/28 09:41:05;;;;;;;9.27;4.85;;;;;;;;;;5073713;28;20104;-74
2022/06/28 09:43:33;;;;;;;6.75;4.82;;;33.80;67.70;;;;;;5073781;28;20475;-74
2022/06/28 09:46:04;;;;;;;7.38;4.50;;;33.90;69.40;;;;;;5074291;28;20112;-74
2022/06/28 09:48:37;;;;;;;6.60;4.50;;;34.20;72.10;;;;;;5074195;28;20557;-75
2022/06/28 09:51:04;;;;;;;6.65;4.43;;;34.30;70.40;;;;;;5074402;28;20041;-76
2022/06/28 09:53:32;;;;;;;6.28;4.40;;;33.70;69.10;;;;;;5074243;28;20028;-71
2022/06/28 09:56:03;;;;;;;7.40;4.30;;;33.90;68.10;;;;;;5073918;28;20024;-75
2022/06/28 09:58:30;;;;;;;5.50;3.83;;;33.90;67.70;;;;;;5074045;28;20431;-73
2022/06/28 10:00:56;;;;;;;12.82;4.43;;;34.10;68.80;;;;;;5073233;28;20406;-76
2022/06/28 10:03:23;;;;;;;7.88;4.40;;;34.10;69.30;;;;;;5073880;28;20062;-75
2022/06/28 10:05:48;;;;;;;5.28;4.30;;;34.40;70.50;;;;;;5074051;28;20024;-75
2022/06/28 10:08:14;;;;;;;8.63;4.97;;;33.80;69.70;;;;;;5072897;28;20032;-74
2022/06/28 10:10:41;;;;;;;6.10;4.50;;;34.00;69.70;;;;;;5073767;28;20383;-75
2022/06/28 10:16:07;;;;;;;8.18;4.28;;;34.00;67.60;;;;;;5072880;28;20029;-75
2022/06/28 10:18:33;;;;;;;7.03;4.10;;;34.30;69.70;;;;;;5074022;28;20374;-73
2022/06/28 10:21:00;;;;;;;7.63;4.00;;;34.20;66.70;;;;;;5073816;28;20459;-74
2022/06/28 10:23:42;;;;;;;7.47;4.28;;;34.30;67.30;;;;;;5073917;28;20079;-72
2022/06/28 10:26:09;;;;;;;5.55;4.10;;;34.30;68.00;;;;;;5073488;28;20031;-74
2022/06/28 10:28:59;;;;;;;7.10;4.43;;;34.20;69.00;;;;;;5073251;28;20482;-75
2022/06/28 10:31:25;;;;;;;6.50;4.05;;;34.40;70.50;;;;;;5071834;28;20024;-74
2022/06/28 10:33:56;;;;;;;8.80;4.70;;;34.40;66.80;;;;;;5056123;28;20102;-75
2022/06/28 10:36:23;;;;;;;;;;;34.00;67.40;;;;;;5065289;28;20040;-75
2022/06/28 10:39:00;;;;;;;4.97;3.80;;;33.90;67.00;;;;;;5073562;28;20391;-75
2022/06/28 10:41:49;;;;;;;5.95;3.92;;;33.70;68.80;;;;;;5073556;28;20799;-73
2022/06/28 10:44:22;;;;;;;12.73;3.50;;;33.90;66.90;;;;;;5070431;28;20063;-64
2022/06/28 10:47:09;;;;;;;5.80;3.30;;;34.30;67.70;;;;;;5071134;28;20111;-71
2022/06/28 10:49:48;;;;;;;5.18;3.25;;;33.70;64.00;;;;;;5071859;28;20044;-71
2022/06/28 10:52:33;;;;;;;9.80;3.88;;;33.70;64.10;;;;;;5072741;28;20032;-74
2022/06/28 10:54:59;;;;;;;6.38;3.55;;;34.20;66.70;;;;;;5071865;28;20111;-75
2022/06/28 10:57:37;;;;;;;5.03;2.80;;;34.20;66.00;;;;;;5072807;28;20095;-71
2022/06/28 11:00:09;;;;;;;4.20;3.15;;;34.30;64.20;;;;;;5072732;28;20016;-73
2022/06/28 11:09:55;;;;;;;6.20;2.78;;;34.30;65.20;;;;;;4983353;28;20436;-74
2022/06/28 11:12:41;;;;;;;6.35;3.28;;;34.20;66.60;;;;;;4992139;28;20057;-74
2022/06/28 11:15:10;;;;;;;4.63;2.92;;;34.40;65.80;;;;;;4992109;28;20030;-75
2022/06/28 11:17:40;;;;;;;7.20;3.55;;;33.80;66.10;;;;;;4992346;28;20038;-73
2022/06/28 11:20:08;;;;;;;7.50;3.38;;;34.10;69.30;;;;;;4992485;28;20472;-72
2022/06/28 11:22:39;;;;;;;5.13;2.88;;;34.50;69.70;;;;;;4992781;28;20365;-74
2022/06/28 11:25:07;;;;;;;13.25;2.83;;;34.40;64.50;;;;;;4990381;28;20042;-74
2022/06/28 11:27:34;;;;;;;4.22;2.63;;;34.30;64.50;;;;;;4992903;28;20081;-74
2022/06/28 11:30:00;;;;;;;3.90;2.47;;;34.50;64.50;;;;;;4989868;28;20034;-73
2022/06/28 11:32:27;;;;;;;8.90;3.20;;;34.50;66.30;;;;;;4992363;28;20030;-74
2022/06/28 11:35:33;;;;;;;3.63;2.75;;;34.30;66.30;;;;;;4992353;28;20051;-76
2022/06/28 11:38:14;;;;;;;7.82;2.60;;;34.30;65.40;;;;;;4980782;28;20073;-72
2022/06/28 11:40:43;;;;;;;3.88;2.60;;;34.50;68.60;;;;;;4992182;28;20034;-74
2022/06/28 11:43:11;;;;;;;5.78;2.90;;;34.20;65.10;;;;;;4992646;28;20027;-73
2022/06/28 11:45:50;;;;;;;3.80;2.72;;;34.30;66.10;;;;;;4992669;28;20073;-75
2022/06/28 11:48:28;;;;;;;6.85;2.88;;;34.30;64.80;;;;;;4992357;28;20041;-72
2022/06/28 11:50:56;;;;;;;5.90;2.75;;;34.30;64.60;;;;;;4991910;28;20026;-73
2022/06/28 11:53:23;;;;;;;6.38;2.67;;;34.50;65.10;;;;;;4991265;28;20362;-73
2022/06/28 11:55:56;;;;;;;3.72;2.78;;;;;;;;;;4984293;28;20029;-76
2022/06/28 11:58:40;;;;;;;5.57;3.08;;;;;;;;;;4988758;28;20449;-76
2022/06/28 12:01:17;;;;;;;4.80;2.67;;;35.00;65.50;;;;;;4991141;28;20038;-75
2022/06/28 12:03:43;;;;;;;3.88;2.20;;;35.00;66.50;;;;;;4992204;28;20038;-76
2022/06/28 12:06:18;;;;;;;2.80;2.28;;;35.00;66.20;;;;;;4992056;28;20032;-76
2022/06/28 12:08:46;;;;;;;4.50;2.70;;;35.10;67.00;;;;;;5001174;28;20061;-75
2022/06/28 12:11:44;;;;;;;4.10;2.70;;;35.00;64.30;;;;;;4992097;28;20109;-75
2022/06/28 12:14:16;;;;;;;4.80;2.40;;;34.80;64.40;;;;;;4988354;28;20074;-74
2022/06/28 12:16:44;;;;;;;5.95;2.58;;;34.80;66.50;;;;;;4991739;28;20216;-73
2022/06/28 12:19:15;;;;;;;3.83;2.67;;;34.60;64.60;;;;;;4992189;28;20033;-73
2022/06/28 12:21:57;;;;;;;6.05;2.70;;;34.30;63.90;;;;;;4992099;28;20041;-73
2022/06/28 12:24:39;;;;;;;5.85;3.05;;;;;;;;;;4992157;28;20038;-75
2022/06/28 12:27:05;;;;;;;5.80;2.83;;;34.10;66.40;;;;;;4991821;28;20019;-75
2022/06/28 12:29:31;;;;;;;5.88;3.08;;;34.40;70.70;;;;;;5002348;28;20091;-75
2022/06/28 12:31:57;;;;;;;5.80;2.45;;;34.40;69.00;;;;;;4994984;28;20174;-73
2022/06/28 12:34:22;;;;;;;3.13;2.80;;;34.10;66.10;;;;;;4991399;28;20576;-74
2022/06/28 12:36:48;;;;;;;5.13;2.35;;;34.20;66.30;;;;;;4990924;28;20031;-75
2022/06/28 12:39:14;;;;;;;4.03;2.50;;;34.50;65.10;;;;;;5001889;28;20049;-74
2022/06/28 12:41:41;;;;;;;3.33;2.50;;;34.20;65.30;;;;;;4995013;28;20052;-73
2022/06/28 12:44:07;;;;;;;3.95;2.40;;;34.40;64.00;;;;;;4995162;28;20031;-74
2022/06/28 12:46:33;;;;;;;7.97;2.45;;;34.20;62.60;;;;;;4995182;28;20058;-74
2022/06/28 12:48:58;;;;;;;5.82;2.33;;;34.30;61.70;;;;;;4995596;28;20050;-75
2022/06/28 12:51:24;;;;;;;7.45;2.42;;;34.40;62.80;;;;;;4995486;28;20030;-73
2022/06/28 12:53:50;;;;;;;3.60;2.05;;;34.10;59.30;;;;;;4994359;28;20026;-74
2022/06/28 12:56:16;;;;;;;6.72;2.78;;;34.40;59.40;;;;;;4995475;28;20034;-73
2022/06/28 12:58:44;;;;;;;3.85;2.53;;;34.20;59.90;;;;;;4995646;28;20559;-74
2022/06/28 13:01:10;;;;;;;4.25;2.42;;;34.40;63.10;;;;;;4995271;28;20097;-75
2022/06/28 13:03:36;;;;;;;19.35;3.13;;;34.60;62.40;;;;;;4995448;28;20121;-75
2022/06/28 13:06:02;;;;;;;3.47;2.22;;;34.60;60.80;;;;;;4994485;28;20098;-75
2022/06/28 13:08:28;;;;;;;6.90;2.67;;;34.70;61.60;;;;;;4982791;28;20055;-75
2022/06/28 13:10:54;;;;;;;4.70;2.20;;;34.60;62.40;;;;;;4975121;28;20037;-74
2022/06/28 13:13:20;;;;;;;4.10;2.08;;;34.40;61.30;;;;;;4957697;28;20065;-74
2022/06/28 13:15:49;;;;;;;5.32;2.65;;;34.30;60.90;;;;;;4975054;28;20477;-73
2022/06/28 13:18:16;;;;;;;4.95;3.30;;;34.20;60.80;;;;;;4957885;28;20033;-75
2022/06/28 13:20:42;;;;;;;5.97;2.70;;;34.30;61.10;;;;;;4974907;28;20031;-75